createdAt,value
2018-07-28T00:00:06.433Z,0
2018-07-28T00:01:06.475Z,0
2018-07-28T00:02:06.500Z,0
2018-07-28T00:03:06.771Z,0
2018-07-28T00:04:06.279Z,0
2018-07-28T00:05:06.571Z,0
2018-07-28T00:06:06.597Z,0
2018-07-28T00:07:06.634Z,0
2018-07-28T00:08:06.383Z,0
2018-07-28T00:09:06.945Z,0
2018-07-28T00:10:06.450Z,0
2018-07-28T00:11:06.720Z,0
2018-07-28T00:12:06.751Z,0
2018-07-28T00:13:06.783Z,0
2018-07-28T00:14:07.059Z,0
2018-07-28T00:15:06.828Z,0
2018-07-28T00:16:06.663Z,0
2018-07-28T00:17:06.619Z,0
2018-07-28T00:18:07.181Z,0
2018-07-28T00:19:06.926Z,0
2018-07-28T00:20:06.956Z,0
2018-07-28T00:21:07.337Z,0
2018-07-28T00:22:06.752Z,0
2018-07-28T00:23:07.286Z,0
2018-07-28T00:24:07.072Z,0
2018-07-28T00:25:06.576Z,0
2018-07-28T00:26:07.113Z,0
2018-07-28T00:27:07.133Z,0
2018-07-28T00:28:06.935Z,0
2018-07-28T00:29:06.928Z,0
2018-07-28T00:30:07.221Z,0
2018-07-28T00:31:06.974Z,0
2018-07-28T00:32:07.047Z,0
2018-07-28T00:33:07.290Z,0
2018-07-28T00:34:07.068Z,0
2018-07-28T00:35:07.338Z,0
2018-07-28T00:36:07.101Z,0
2018-07-28T00:37:07.391Z,0
2018-07-28T00:38:07.431Z,0
2018-07-28T00:39:07.442Z,0
2018-07-28T00:40:07.224Z,0
2018-07-28T00:41:07.492Z,0
2018-07-28T00:42:07.266Z,0
2018-07-28T00:43:07.801Z,0
2018-07-28T00:44:07.314Z,0
2018-07-28T00:45:14.129Z,0
2018-07-28T00:46:07.885Z,0
2018-07-28T00:47:07.387Z,0
2018-07-28T00:48:07.182Z,0
2018-07-28T00:49:07.706Z,0
2018-07-28T00:50:07.473Z,0
2018-07-28T00:51:07.756Z,0
2018-07-28T00:52:07.546Z,0
2018-07-28T00:53:07.557Z,0
2018-07-28T00:54:07.603Z,0
2018-07-28T00:55:07.866Z,0
2018-07-28T00:56:07.887Z,0
2018-07-28T00:57:07.927Z,0
2018-07-28T00:58:08.224Z,0
2018-07-28T00:59:07.957Z,0
2018-07-28T01:00:08.265Z,0
2018-07-28T01:01:07.755Z,0
2018-07-28T01:02:08.044Z,0
2018-07-28T01:03:08.060Z,0
2018-07-28T01:04:08.092Z,0
2018-07-28T01:05:08.157Z,0
2018-07-28T01:06:08.176Z,0
2018-07-28T01:07:08.159Z,0
2018-07-28T01:08:08.203Z,0
2018-07-28T01:09:08.209Z,0
2018-07-28T01:10:07.974Z,0
2018-07-28T01:11:08.519Z,0
2018-07-28T01:12:08.034Z,0
2018-07-28T01:13:08.308Z,0
2018-07-28T01:14:08.089Z,0
2018-07-28T01:15:08.119Z,0
2018-07-28T01:16:08.389Z,0
2018-07-28T01:17:08.486Z,0
2018-07-28T01:18:08.710Z,0
2018-07-28T01:19:08.729Z,0
2018-07-28T01:20:08.772Z,0
2018-07-28T01:21:08.267Z,0
2018-07-28T01:22:08.286Z,0
2018-07-28T01:23:08.833Z,0
2018-07-28T01:24:08.334Z,0
2018-07-28T01:25:08.617Z,0
2018-07-28T01:26:08.381Z,0
2018-07-28T01:27:08.671Z,0
2018-07-28T01:28:08.694Z,0
2018-07-28T01:29:08.730Z,0
2018-07-28T01:30:08.768Z,0
2018-07-28T01:31:08.776Z,0
2018-07-28T01:32:08.327Z,0
2018-07-28T01:33:08.831Z,0
2018-07-28T01:34:08.852Z,0
2018-07-28T01:35:09.183Z,0
2018-07-28T01:36:08.911Z,0
2018-07-28T01:37:09.187Z,0
2018-07-28T01:38:08.953Z,0
2018-07-28T01:39:09.230Z,0
2018-07-28T01:40:08.744Z,0
2018-07-28T01:41:09.283Z,0
2018-07-28T01:42:09.059Z,0
2018-07-28T01:43:08.822Z,0
2018-07-28T01:44:09.098Z,0
2018-07-28T01:45:09.386Z,0
2018-07-28T01:46:08.889Z,0
2018-07-28T01:47:09.173Z,0
2018-07-28T01:48:09.517Z,0
2018-07-28T01:49:09.505Z,0
2018-07-28T01:50:08.740Z,0
2018-07-28T01:51:09.544Z,0
2018-07-28T01:52:09.045Z,0
2018-07-28T01:53:09.333Z,0
2018-07-28T01:54:09.357Z,0
2018-07-28T01:55:09.654Z,0
2018-07-28T01:56:09.458Z,0
2018-07-28T01:57:09.435Z,0
2018-07-28T01:58:09.210Z,0
2018-07-28T01:59:09.515Z,0
2018-07-28T02:00:09.261Z,0
2018-07-28T02:01:09.271Z,0
2018-07-28T02:02:09.820Z,0
2018-07-28T02:03:09.581Z,0
2018-07-28T02:04:09.875Z,0
2018-07-28T02:05:09.371Z,0
2018-07-28T02:06:09.912Z,0
2018-07-28T02:07:09.938Z,0
2018-07-28T02:08:09.712Z,0
2018-07-28T02:09:09.738Z,0
2018-07-28T02:10:10.051Z,0
2018-07-28T02:11:10.057Z,0
2018-07-28T02:12:09.810Z,0
2018-07-28T02:13:09.573Z,0
2018-07-28T02:14:09.596Z,0
2018-07-28T02:15:10.159Z,0
2018-07-28T02:16:09.647Z,0
2018-07-28T02:17:10.194Z,0
2018-07-28T02:18:09.971Z,0
2018-07-28T02:19:10.252Z,0
2018-07-28T02:20:10.024Z,0
2018-07-28T02:21:10.031Z,0
2018-07-28T02:22:10.347Z,0
2018-07-28T02:23:10.078Z,0
2018-07-28T02:24:10.118Z,0
2018-07-28T02:25:10.126Z,0
2018-07-28T02:26:09.913Z,0
2018-07-28T02:27:10.183Z,0
2018-07-28T02:28:10.211Z,0
2018-07-28T02:29:09.969Z,0
2018-07-28T02:30:10.553Z,0
2018-07-28T02:31:10.282Z,0
2018-07-28T02:32:10.812Z,0
2018-07-28T02:33:10.352Z,0
2018-07-28T02:34:09.864Z,0
2018-07-28T02:35:10.430Z,0
2018-07-28T02:36:10.687Z,0
2018-07-28T02:37:10.185Z,0
2018-07-28T02:38:09.977Z,0
2018-07-28T02:39:10.753Z,0
2018-07-28T02:40:10.261Z,0
2018-07-28T02:41:10.535Z,0
2018-07-28T02:42:10.563Z,0
2018-07-28T02:43:10.848Z,0
2018-07-28T02:44:10.618Z,0
2018-07-28T02:45:10.389Z,0
2018-07-28T02:46:10.681Z,0
2018-07-28T02:47:10.423Z,0
2018-07-28T02:48:10.941Z,0
2018-07-28T02:49:11.002Z,0
2018-07-28T02:50:10.897Z,0
2018-07-28T02:51:10.627Z,0
2018-07-28T02:52:10.815Z,0
2018-07-28T02:53:10.834Z,0
2018-07-28T02:54:10.879Z,0
2018-07-28T02:55:11.255Z,0
2018-07-28T02:56:10.662Z,0
2018-07-28T02:57:11.908Z,0
2018-07-28T02:58:11.280Z,0
2018-07-28T02:59:11.245Z,0
2018-07-28T03:00:11.082Z,0
2018-07-28T03:01:10.844Z,0
2018-07-28T03:02:10.813Z,0
2018-07-28T03:03:11.096Z,0
2018-07-28T03:04:10.602Z,0
2018-07-28T03:05:11.136Z,0
2018-07-28T03:06:11.273Z,0
2018-07-28T03:07:11.140Z,0
2018-07-28T03:08:10.947Z,0
2018-07-28T03:09:11.516Z,0
2018-07-28T03:10:11.530Z,0
2018-07-28T03:11:11.569Z,0
2018-07-28T03:12:11.315Z,0
2018-07-28T03:13:11.355Z,0
2018-07-28T03:14:11.372Z,0
2018-07-28T03:15:11.148Z,0
2018-07-28T03:16:11.673Z,0
2018-07-28T03:17:10.907Z,0
2018-07-28T03:18:11.199Z,0
2018-07-28T03:19:11.418Z,0
2018-07-28T03:20:11.506Z,0
2018-07-28T03:21:11.532Z,0
2018-07-28T03:22:11.567Z,0
2018-07-28T03:23:11.841Z,0
2018-07-28T03:24:11.870Z,0
2018-07-28T03:25:11.631Z,0
2018-07-28T03:26:11.924Z,0
2018-07-28T03:27:11.417Z,0
2018-07-28T03:28:11.493Z,0
2018-07-28T03:29:11.504Z,0
2018-07-28T03:30:11.484Z,0
2018-07-28T03:31:12.036Z,0
2018-07-28T03:32:11.563Z,0
2018-07-28T03:33:11.874Z,0
2018-07-28T03:34:11.860Z,0
2018-07-28T03:35:12.218Z,0
2018-07-28T03:36:11.889Z,0
2018-07-28T03:37:11.659Z,0
2018-07-28T03:38:11.677Z,0
2018-07-28T03:39:11.727Z,0
2018-07-28T03:40:11.730Z,0
2018-07-28T03:41:12.028Z,0
2018-07-28T03:42:12.297Z,0
2018-07-28T03:43:12.067Z,0
2018-07-28T03:44:12.091Z,0
2018-07-28T03:45:12.382Z,0
2018-07-28T03:46:12.142Z,0
2018-07-28T03:47:12.424Z,0
2018-07-28T03:48:12.456Z,0
2018-07-28T03:49:12.321Z,0
2018-07-28T03:50:11.720Z,0
2018-07-28T03:51:12.265Z,0
2018-07-28T03:52:12.294Z,0
2018-07-28T03:53:12.569Z,0
2018-07-28T03:54:12.601Z,0
2018-07-28T03:55:12.368Z,0
2018-07-28T03:56:12.674Z,0
2018-07-28T03:57:12.681Z,0
2018-07-28T03:58:12.710Z,0
2018-07-28T03:59:12.455Z,0
2018-07-28T04:00:12.238Z,0
2018-07-28T04:01:12.511Z,0
2018-07-28T04:02:12.036Z,0
2018-07-28T04:03:12.299Z,0
2018-07-28T04:04:12.719Z,0
2018-07-28T04:05:12.611Z,0
2018-07-28T04:06:12.109Z,0
2018-07-28T04:07:12.651Z,0
2018-07-28T04:08:12.426Z,0
2018-07-28T04:09:12.711Z,0
2018-07-28T04:10:12.753Z,0
2018-07-28T04:11:12.752Z,0
2018-07-28T04:12:13.040Z,0
2018-07-28T04:13:12.810Z,0
2018-07-28T04:14:12.829Z,0
2018-07-28T04:15:12.343Z,0
2018-07-28T04:16:12.628Z,0
2018-07-28T04:17:12.898Z,0
2018-07-28T04:18:12.669Z,0
2018-07-28T04:19:12.956Z,0
2018-07-28T04:20:12.719Z,0
2018-07-28T04:21:12.736Z,0
2018-07-28T04:22:13.033Z,0
2018-07-28T04:23:13.041Z,0
2018-07-28T04:24:13.335Z,0
2018-07-28T04:25:13.366Z,0
2018-07-28T04:26:13.114Z,0
2018-07-28T04:27:13.400Z,0
2018-07-28T04:28:13.167Z,0
2018-07-28T04:29:12.935Z,0
2018-07-28T04:30:12.963Z,0
2018-07-28T04:31:13.508Z,0
2018-07-28T04:32:13.533Z,0
2018-07-28T04:33:13.289Z,0
2018-07-28T04:34:13.050Z,0
2018-07-28T04:35:13.604Z,0
2018-07-28T04:36:13.431Z,0
2018-07-28T04:37:13.545Z,5
2018-07-28T04:38:13.419Z,5
2018-07-28T04:39:13.697Z,5
2018-07-28T04:40:13.204Z,5
2018-07-28T04:41:13.772Z,5
2018-07-28T04:42:12.995Z,5
2018-07-28T04:43:13.536Z,5
2018-07-28T04:44:13.908Z,5
2018-07-28T04:45:13.854Z,5
2018-07-28T04:46:13.616Z,5
2018-07-28T04:47:13.639Z,5
2018-07-28T04:48:13.401Z,5
2018-07-28T04:49:13.415Z,5
2018-07-28T04:50:13.715Z,5
2018-07-28T04:51:13.725Z,5
2018-07-28T04:52:14.014Z,5
2018-07-28T04:53:13.786Z,5
2018-07-28T04:54:13.809Z,5
2018-07-28T04:55:14.082Z,5
2018-07-28T04:56:13.847Z,5
2018-07-28T04:57:13.879Z,5
2018-07-28T04:58:13.899Z,5
2018-07-28T04:59:14.175Z,5
2018-07-28T05:00:13.686Z,5
2018-07-28T05:01:14.226Z,5
2018-07-28T05:02:13.738Z,5
2018-07-28T05:03:14.019Z,5
2018-07-28T05:04:14.054Z,5
2018-07-28T05:05:14.118Z,5
2018-07-28T05:06:14.093Z,5
2018-07-28T05:07:14.204Z,5
2018-07-28T05:08:14.403Z,5
2018-07-28T05:09:14.447Z,5
2018-07-28T05:10:14.450Z,5
2018-07-28T05:11:13.962Z,5
2018-07-28T05:12:13.983Z,5
2018-07-28T05:13:14.518Z,5
2018-07-28T05:14:14.550Z,5
2018-07-28T05:15:14.314Z,5
2018-07-28T05:16:14.510Z,5
2018-07-28T05:17:13.839Z,5
2018-07-28T05:18:14.395Z,5
2018-07-28T05:19:14.417Z,5
2018-07-28T05:20:14.191Z,5
2018-07-28T05:21:14.454Z,5
2018-07-28T05:22:14.222Z,5
2018-07-28T05:23:14.241Z,5
2018-07-28T05:24:14.797Z,5
2018-07-28T05:25:14.578Z,5
2018-07-28T05:26:14.077Z,5
2018-07-28T05:27:14.348Z,5
2018-07-28T05:28:14.908Z,5
2018-07-28T05:29:14.917Z,5
2018-07-28T05:30:14.981Z,5
2018-07-28T05:31:14.703Z,5
2018-07-28T05:32:14.834Z,5
2018-07-28T05:33:14.751Z,5
2018-07-28T05:34:15.033Z,5
2018-07-28T05:35:14.813Z,5
2018-07-28T05:36:14.820Z,5
2018-07-28T05:37:14.491Z,5
2018-07-28T05:38:14.609Z,5
2018-07-28T05:39:14.740Z,5
2018-07-28T05:40:14.659Z,5
2018-07-28T05:41:14.474Z,5
2018-07-28T05:42:14.984Z,5
2018-07-28T05:43:15.253Z,5
2018-07-28T05:44:15.281Z,5
2018-07-28T05:45:15.314Z,5
2018-07-28T05:46:15.060Z,5
2018-07-28T05:47:15.355Z,5
2018-07-28T05:48:15.387Z,5
2018-07-28T05:49:15.154Z,5
2018-07-28T05:50:15.580Z,5
2018-07-28T05:51:15.447Z,5
2018-07-28T05:52:15.470Z,5
2018-07-28T05:53:15.237Z,5
2018-07-28T05:54:15.519Z,5
2018-07-28T05:55:15.028Z,5
2018-07-28T05:56:15.309Z,5
2018-07-28T05:57:15.592Z,5
2018-07-28T05:58:15.371Z,5
2018-07-28T05:59:15.648Z,5
2018-07-28T06:00:15.405Z,5
2018-07-28T06:01:15.696Z,5
2018-07-28T06:02:15.431Z,5
2018-07-28T06:03:15.242Z,5
2018-07-28T06:04:15.529Z,5
2018-07-28T06:05:15.273Z,5
2018-07-28T06:06:15.319Z,5
2018-07-28T06:07:15.851Z,5
2018-07-28T06:08:15.601Z,5
2018-07-28T06:09:15.105Z,5
2018-07-28T06:10:15.660Z,5
2018-07-28T06:11:15.433Z,5
2018-07-28T06:12:15.963Z,5
2018-07-28T06:13:16.018Z,5
2018-07-28T06:14:15.664Z,5
2018-07-28T06:15:15.785Z,5
2018-07-28T06:16:16.240Z,5
2018-07-28T06:17:15.825Z,5
2018-07-28T06:18:15.864Z,5
2018-07-28T06:19:15.876Z,5
2018-07-28T06:20:16.070Z,5
2018-07-28T06:21:15.936Z,5
2018-07-28T06:22:16.126Z,5
2018-07-28T06:23:16.228Z,5
2018-07-28T06:24:16.256Z,5
2018-07-28T06:25:16.071Z,10
2018-07-28T06:26:16.053Z,10
2018-07-28T06:27:16.078Z,10
2018-07-28T06:28:15.856Z,10
2018-07-28T06:29:16.426Z,10
2018-07-28T06:30:16.150Z,10
2018-07-28T06:31:15.909Z,10
2018-07-28T06:32:16.189Z,10
2018-07-28T06:33:16.216Z,10
2018-07-28T06:34:16.257Z,10
2018-07-28T06:35:16.527Z,10
2018-07-28T06:36:16.551Z,10
2018-07-28T06:37:16.579Z,10
2018-07-28T06:38:15.824Z,10
2018-07-28T06:39:16.361Z,10
2018-07-28T06:40:16.410Z,10
2018-07-28T06:41:16.421Z,10
2018-07-28T06:42:16.831Z,10
2018-07-28T06:43:16.724Z,10
2018-07-28T06:44:16.778Z,10
2018-07-28T06:45:16.520Z,10
2018-07-28T06:46:16.803Z,10
2018-07-28T06:47:16.992Z,10
2018-07-28T06:48:16.590Z,10
2018-07-28T06:49:16.621Z,10
2018-07-28T06:50:16.641Z,10
2018-07-28T06:51:16.929Z,10
2018-07-28T06:52:16.679Z,10
2018-07-28T06:53:16.707Z,10
2018-07-28T06:54:16.740Z,10
2018-07-28T06:55:16.765Z,10
2018-07-28T06:56:16.778Z,10
2018-07-28T06:57:17.116Z,10
2018-07-28T06:58:16.833Z,10
2018-07-28T06:59:16.867Z,10
2018-07-28T07:00:16.939Z,10
2018-07-28T07:01:16.647Z,10
2018-07-28T07:02:16.941Z,10
2018-07-28T07:03:16.960Z,10
2018-07-28T07:04:16.728Z,10
2018-07-28T07:05:17.019Z,10
2018-07-28T07:06:17.031Z,10
2018-07-28T07:07:17.322Z,10
2018-07-28T07:08:17.346Z,10
2018-07-28T07:09:17.382Z,10
2018-07-28T07:10:17.145Z,10
2018-07-28T07:11:17.163Z,10
2018-07-28T07:12:17.450Z,10
2018-07-28T07:13:17.474Z,10
2018-07-28T07:14:17.231Z,10
2018-07-28T07:15:17.003Z,10
2018-07-28T07:16:17.552Z,10
2018-07-28T07:17:17.565Z,10
2018-07-28T07:18:17.340Z,10
2018-07-28T07:19:17.365Z,10
2018-07-28T07:20:17.379Z,10
2018-07-28T07:21:17.403Z,10
2018-07-28T07:22:17.165Z,10
2018-07-28T07:23:17.459Z,10
2018-07-28T07:24:17.488Z,10
2018-07-28T07:25:17.534Z,10
2018-07-28T07:26:17.829Z,10
2018-07-28T07:27:17.562Z,10
2018-07-28T07:28:17.582Z,10
2018-07-28T07:29:17.867Z,10
2018-07-28T07:30:17.660Z,10
2018-07-28T07:31:17.394Z,10
2018-07-28T07:32:17.946Z,10
2018-07-28T07:33:17.710Z,10
2018-07-28T07:34:17.993Z,10
2018-07-28T07:35:18.031Z,10
2018-07-28T07:36:18.146Z,10
2018-07-28T07:37:17.808Z,10
2018-07-28T07:38:18.104Z,10
2018-07-28T07:39:18.137Z,10
2018-07-28T07:40:18.151Z,10
2018-07-28T07:41:17.912Z,10
2018-07-28T07:42:17.683Z,10
2018-07-28T07:43:17.966Z,10
2018-07-28T07:44:17.994Z,10
2018-07-28T07:45:18.014Z,10
2018-07-28T07:46:18.041Z,10
2018-07-28T07:47:18.683Z,10
2018-07-28T07:48:18.092Z,10
2018-07-28T07:49:18.128Z,10
2018-07-28T07:50:18.161Z,10
2018-07-28T07:51:18.179Z,10
2018-07-28T07:52:18.455Z,10
2018-07-28T07:53:18.213Z,10
2018-07-28T07:54:17.733Z,10
2018-07-28T07:55:18.012Z,10
2018-07-28T07:56:18.294Z,10
2018-07-28T07:57:18.327Z,15
2018-07-28T07:58:18.673Z,15
2018-07-28T07:59:18.630Z,15
2018-07-28T08:00:17.879Z,15
2018-07-28T08:01:18.427Z,15
2018-07-28T08:02:18.206Z,15
2018-07-28T08:03:18.489Z,15
2018-07-28T08:04:18.269Z,15
2018-07-28T08:05:18.791Z,15
2018-07-28T08:06:18.864Z,15
2018-07-28T08:07:18.586Z,15
2018-07-28T08:08:18.617Z,15
2018-07-28T08:09:18.380Z,15
2018-07-28T08:10:18.930Z,15
2018-07-28T08:11:18.950Z,15
2018-07-28T08:12:18.720Z,15
2018-07-28T08:13:18.738Z,15
2018-07-28T08:14:18.767Z,15
2018-07-28T08:15:18.793Z,15
2018-07-28T08:16:18.823Z,10
2018-07-28T08:17:19.104Z,10
2018-07-28T08:18:18.863Z,10
2018-07-28T08:19:18.895Z,10
2018-07-28T08:20:18.664Z,10
2018-07-28T08:21:18.953Z,10
2018-07-28T08:22:19.240Z,10
2018-07-28T08:23:19.263Z,10
2018-07-28T08:24:19.291Z,10
2018-07-28T08:25:19.324Z,15
2018-07-28T08:26:19.348Z,15
2018-07-28T08:27:19.370Z,15
2018-07-28T08:28:18.879Z,15
2018-07-28T08:29:19.159Z,15
2018-07-28T08:30:18.936Z,15
2018-07-28T08:31:19.216Z,15
2018-07-28T08:32:18.980Z,15
2018-07-28T08:33:19.641Z,15
2018-07-28T08:34:19.567Z,15
2018-07-28T08:35:19.328Z,15
2018-07-28T08:36:19.363Z,15
2018-07-28T08:37:19.379Z,15
2018-07-28T08:38:19.413Z,15
2018-07-28T08:39:19.692Z,15
2018-07-28T08:40:19.245Z,15
2018-07-28T08:41:19.495Z,15
2018-07-28T08:42:18.991Z,15
2018-07-28T08:43:19.811Z,20
2018-07-28T08:44:19.571Z,20
2018-07-28T08:45:19.595Z,20
2018-07-28T08:46:19.369Z,20
2018-07-28T08:47:19.654Z,20
2018-07-28T08:48:19.426Z,20
2018-07-28T08:49:20.258Z,20
2018-07-28T08:50:19.740Z,20
2018-07-28T08:51:19.507Z,20
2018-07-28T08:52:19.787Z,20
2018-07-28T08:53:19.812Z,20
2018-07-28T08:54:19.852Z,20
2018-07-28T08:55:19.875Z,20
2018-07-28T08:56:20.159Z,20
2018-07-28T08:57:19.922Z,20
2018-07-28T08:58:20.242Z,20
2018-07-28T08:59:19.987Z,20
2018-07-28T09:00:20.021Z,20
2018-07-28T09:01:20.043Z,20
2018-07-28T09:02:20.069Z,20
2018-07-28T09:03:20.114Z,20
2018-07-28T09:04:20.114Z,20
2018-07-28T09:05:20.149Z,20
2018-07-28T09:06:20.184Z,20
2018-07-28T09:07:20.467Z,20
2018-07-28T09:08:20.243Z,20
2018-07-28T09:09:20.274Z,20
2018-07-28T09:10:20.552Z,20
2018-07-28T09:11:20.339Z,20
2018-07-28T09:12:20.720Z,20
2018-07-28T09:13:20.138Z,20
2018-07-28T09:14:20.405Z,20
2018-07-28T09:15:20.705Z,20
2018-07-28T09:16:20.790Z,20
2018-07-28T09:17:20.494Z,20
2018-07-28T09:18:20.519Z,20
2018-07-28T09:19:20.543Z,20
2018-07-28T09:20:20.578Z,20
2018-07-28T09:21:20.608Z,20
2018-07-28T09:22:20.380Z,20
2018-07-28T09:23:20.930Z,20
2018-07-28T09:24:20.429Z,20
2018-07-28T09:25:20.987Z,20
2018-07-28T09:26:20.749Z,20
2018-07-28T09:27:21.036Z,20
2018-07-28T09:28:21.064Z,20
2018-07-28T09:29:20.835Z,20
2018-07-28T09:30:20.865Z,20
2018-07-28T09:31:20.636Z,20
2018-07-28T09:32:20.669Z,20
2018-07-28T09:33:21.214Z,20
2018-07-28T09:34:21.483Z,20
2018-07-28T09:35:21.637Z,25
2018-07-28T09:36:21.142Z,25
2018-07-28T09:37:21.341Z,25
2018-07-28T09:38:21.359Z,25
2018-07-28T09:39:20.607Z,25
2018-07-28T09:40:21.157Z,25
2018-07-28T09:41:21.200Z,25
2018-07-28T09:42:21.481Z,25
2018-07-28T09:43:21.251Z,25
2018-07-28T09:44:21.534Z,25
2018-07-28T09:45:21.377Z,25
2018-07-28T09:46:21.732Z,25
2018-07-28T09:47:21.634Z,25
2018-07-28T09:48:21.402Z,25
2018-07-28T09:49:21.174Z,25
2018-07-28T09:50:21.201Z,25
2018-07-28T09:51:21.492Z,25
2018-07-28T09:52:21.776Z,25
2018-07-28T09:53:21.556Z,25
2018-07-28T09:54:21.575Z,25
2018-07-28T09:55:21.353Z,25
2018-07-28T09:56:21.937Z,25
2018-07-28T09:57:21.427Z,25
2018-07-28T09:58:21.967Z,25
2018-07-28T09:59:21.211Z,25
2018-07-28T10:00:21.501Z,30
2018-07-28T10:01:22.060Z,30
2018-07-28T10:02:21.819Z,30
2018-07-28T10:03:21.845Z,30
2018-07-28T10:04:21.881Z,30
2018-07-28T10:05:22.171Z,30
2018-07-28T10:06:21.955Z,30
2018-07-28T10:07:22.232Z,30
2018-07-28T10:08:22.265Z,30
2018-07-28T10:09:22.049Z,30
2018-07-28T10:10:21.808Z,30
2018-07-28T10:11:22.356Z,30
2018-07-28T10:12:21.609Z,30
2018-07-28T10:13:22.161Z,30
2018-07-28T10:14:22.448Z,30
2018-07-28T10:15:22.488Z,30
2018-07-28T10:16:22.757Z,30
2018-07-28T10:17:22.285Z,30
2018-07-28T10:18:22.579Z,30
2018-07-28T10:19:22.089Z,30
2018-07-28T10:20:22.178Z,30
2018-07-28T10:21:22.159Z,30
2018-07-28T10:22:22.456Z,30
2018-07-28T10:23:22.213Z,30
2018-07-28T10:24:22.514Z,30
2018-07-28T10:25:22.803Z,30
2018-07-28T10:26:22.829Z,30
2018-07-28T10:27:22.871Z,30
2018-07-28T10:28:22.637Z,30
2018-07-28T10:29:22.929Z,30
2018-07-28T10:30:23.430Z,35
2018-07-28T10:31:22.470Z,35
2018-07-28T10:32:22.759Z,35
2018-07-28T10:33:23.054Z,35
2018-07-28T10:34:23.094Z,35
2018-07-28T10:35:23.015Z,35
2018-07-28T10:36:23.202Z,35
2018-07-28T10:37:23.188Z,35
2018-07-28T10:38:22.709Z,35
2018-07-28T10:39:23.250Z,35
2018-07-28T10:40:23.019Z,35
2018-07-28T10:41:23.063Z,35
2018-07-28T10:42:23.350Z,35
2018-07-28T10:43:23.439Z,35
2018-07-28T10:44:22.685Z,35
2018-07-28T10:45:23.186Z,35
2018-07-28T10:46:23.221Z,35
2018-07-28T10:47:23.503Z,35
2018-07-28T10:48:23.552Z,35
2018-07-28T10:49:23.324Z,35
2018-07-28T10:50:23.661Z,35
2018-07-28T10:51:23.650Z,35
2018-07-28T10:52:23.414Z,40
2018-07-28T10:53:23.184Z,40
2018-07-28T10:54:23.737Z,40
2018-07-28T10:55:23.543Z,40
2018-07-28T10:56:23.863Z,40
2018-07-28T10:57:23.574Z,40
2018-07-28T10:58:23.644Z,40
2018-07-28T10:59:23.909Z,40
2018-07-28T11:00:24.436Z,40
2018-07-28T11:01:23.701Z,40
2018-07-28T11:02:23.479Z,40
2018-07-28T11:03:23.826Z,40
2018-07-28T11:04:23.805Z,40
2018-07-28T11:05:23.587Z,40
2018-07-28T11:06:23.612Z,40
2018-07-28T11:07:23.645Z,40
2018-07-28T11:08:23.932Z,40
2018-07-28T11:09:24.437Z,45
2018-07-28T11:10:24.031Z,45
2018-07-28T11:11:24.052Z,45
2018-07-28T11:12:24.079Z,45
2018-07-28T11:13:24.374Z,50
2018-07-28T11:14:24.142Z,50
2018-07-28T11:15:24.179Z,50
2018-07-28T11:16:23.974Z,45
2018-07-28T11:17:24.501Z,45
2018-07-28T11:18:23.495Z,45
2018-07-28T11:19:24.053Z,45
2018-07-28T11:20:24.342Z,45
2018-07-28T11:21:24.653Z,45
2018-07-28T11:22:24.160Z,45
2018-07-28T11:23:24.444Z,45
2018-07-28T11:24:24.495Z,45
2018-07-28T11:25:24.782Z,45
2018-07-28T11:26:25.655Z,50
2018-07-28T11:27:24.587Z,50
2018-07-28T11:28:24.624Z,55
2018-07-28T11:29:24.658Z,50
2018-07-28T11:30:24.685Z,50
2018-07-28T11:31:24.461Z,50
2018-07-28T11:32:25.020Z,45
2018-07-28T11:33:25.149Z,45
2018-07-28T11:34:25.215Z,45
2018-07-28T11:35:24.936Z,50
2018-07-28T11:36:24.640Z,50
2018-07-28T11:37:25.189Z,50
2018-07-28T11:38:24.993Z,50
2018-07-28T11:39:25.000Z,50
2018-07-28T11:40:25.287Z,50
2018-07-28T11:41:25.095Z,50
2018-07-28T11:42:25.368Z,50
2018-07-28T11:43:25.401Z,50
2018-07-28T11:44:24.648Z,50
2018-07-28T11:45:25.477Z,50
2018-07-28T11:46:25.256Z,50
2018-07-28T11:47:25.285Z,50
2018-07-28T11:48:25.588Z,30
2018-07-28T11:49:24.826Z,30
2018-07-28T11:50:25.142Z,55
2018-07-28T11:51:26.070Z,55
2018-07-28T11:52:25.476Z,55
2018-07-28T11:53:25.763Z,60
2018-07-28T11:54:25.793Z,55
2018-07-28T11:55:25.820Z,55
2018-07-28T11:56:25.852Z,55
2018-07-28T11:57:25.627Z,55
2018-07-28T11:58:26.160Z,55
2018-07-28T11:59:25.439Z,45
2018-07-28T12:00:25.471Z,30
2018-07-28T12:01:25.510Z,60
2018-07-28T12:02:26.150Z,70
2018-07-28T12:03:25.576Z,70
2018-07-28T12:04:25.884Z,65
2018-07-28T12:05:26.064Z,65
2018-07-28T12:06:26.202Z,65
2018-07-28T12:07:25.784Z,60
2018-07-28T12:08:26.290Z,60
2018-07-28T12:09:25.941Z,60
2018-07-28T12:10:26.088Z,65
2018-07-28T12:11:26.151Z,65
2018-07-28T12:12:26.479Z,70
2018-07-28T12:13:26.209Z,75
2018-07-28T12:14:26.514Z,70
2018-07-28T12:15:26.268Z,70
2018-07-28T12:16:26.300Z,70
2018-07-28T12:17:26.336Z,70
2018-07-28T12:18:27.091Z,65
2018-07-28T12:19:26.410Z,70
2018-07-28T12:20:26.447Z,75
2018-07-28T12:21:26.737Z,75
2018-07-28T12:22:26.254Z,75
2018-07-28T12:23:26.813Z,80
2018-07-28T12:24:26.600Z,85
2018-07-28T12:25:26.632Z,85
2018-07-28T12:26:26.402Z,80
2018-07-28T12:27:26.437Z,75
2018-07-28T12:28:26.728Z,70
2018-07-28T12:29:26.769Z,70
2018-07-28T12:30:26.805Z,70
2018-07-28T12:31:27.103Z,70
2018-07-28T12:32:27.137Z,70
2018-07-28T12:33:27.178Z,70
2018-07-28T12:34:26.692Z,75
2018-07-28T12:35:27.251Z,75
2018-07-28T12:36:27.026Z,80
2018-07-28T12:37:27.062Z,80
2018-07-28T12:38:26.840Z,85
2018-07-28T12:39:26.873Z,55
2018-07-28T12:40:27.171Z,50
2018-07-28T12:41:27.482Z,70
2018-07-28T12:42:27.519Z,85
2018-07-28T12:43:27.278Z,80
2018-07-28T12:44:27.314Z,80
2018-07-28T12:45:27.096Z,75
2018-07-28T12:46:27.390Z,75
2018-07-28T12:47:27.181Z,75
2018-07-28T12:48:27.464Z,70
2018-07-28T12:49:27.623Z,70
2018-07-28T12:50:27.803Z,75
2018-07-28T12:51:27.570Z,80
2018-07-28T12:52:27.611Z,55
2018-07-28T12:53:27.645Z,65
2018-07-28T12:54:27.981Z,65
2018-07-28T12:55:28.539Z,75
2018-07-28T12:56:27.627Z,80
2018-07-28T12:57:27.799Z,80
2018-07-28T12:58:27.590Z,80
2018-07-28T12:59:28.061Z,80
2018-07-28T13:00:27.901Z,80
2018-07-28T13:01:28.202Z,75
2018-07-28T13:02:28.237Z,75
2018-07-28T13:03:28.022Z,75
2018-07-28T13:04:28.327Z,75
2018-07-28T13:05:28.362Z,75
2018-07-28T13:06:28.391Z,70
2018-07-28T13:07:27.905Z,70
2018-07-28T13:08:27.943Z,70
2018-07-28T13:09:28.337Z,70
2018-07-28T13:10:28.767Z,70
2018-07-28T13:11:28.574Z,70
2018-07-28T13:12:28.478Z,70
2018-07-28T13:13:27.606Z,70
2018-07-28T13:14:28.695Z,45
2018-07-28T13:15:28.468Z,40
2018-07-28T13:16:28.765Z,40
2018-07-28T13:17:28.536Z,45
2018-07-28T13:18:28.837Z,55
2018-07-28T13:19:28.612Z,65
2018-07-28T13:20:28.684Z,85
2018-07-28T13:21:28.952Z,85
2018-07-28T13:22:29.015Z,75
2018-07-28T13:23:28.824Z,85
2018-07-28T13:24:29.073Z,80
2018-07-28T13:25:28.575Z,85
2018-07-28T13:26:28.879Z,80
2018-07-28T13:27:29.173Z,80
2018-07-28T13:28:28.437Z,75
2018-07-28T13:29:28.475Z,70
2018-07-28T13:30:28.769Z,70
2018-07-28T13:31:29.084Z,75
2018-07-28T13:32:29.094Z,75
2018-07-28T13:33:28.879Z,80
2018-07-28T13:34:28.656Z,75
2018-07-28T13:35:29.644Z,50
2018-07-28T13:36:28.737Z,65
2018-07-28T13:37:29.547Z,50
2018-07-28T13:38:28.804Z,55
2018-07-28T13:39:28.845Z,70
2018-07-28T13:40:29.143Z,60
2018-07-28T13:41:29.700Z,85
2018-07-28T13:42:29.479Z,80
2018-07-28T13:43:29.277Z,70
2018-07-28T13:44:29.824Z,60
2018-07-28T13:45:29.069Z,65
2018-07-28T13:46:29.637Z,65
2018-07-28T13:47:29.676Z,70
2018-07-28T13:48:29.442Z,55
2018-07-28T13:49:30.007Z,60
2018-07-28T13:50:30.046Z,50
2018-07-28T13:51:29.825Z,45
2018-07-28T13:52:30.123Z,40
2018-07-28T13:53:30.400Z,35
2018-07-28T13:54:29.675Z,35
2018-07-28T13:55:29.792Z,35
2018-07-28T13:56:29.746Z,30
2018-07-28T13:57:30.048Z,25
2018-07-28T13:58:30.089Z,20
2018-07-28T13:59:29.867Z,20
2018-07-28T14:00:30.641Z,20
2018-07-28T14:01:30.470Z,20
2018-07-28T14:02:30.347Z,20
2018-07-28T14:03:29.754Z,20
2018-07-28T14:04:30.060Z,20
2018-07-28T14:05:30.652Z,20
2018-07-28T14:06:30.387Z,20
2018-07-28T14:07:30.441Z,20
2018-07-28T14:08:30.725Z,20
2018-07-28T14:09:30.496Z,20
2018-07-28T14:10:30.831Z,20
2018-07-28T14:11:30.867Z,15
2018-07-28T14:12:30.762Z,15
2018-07-28T14:13:30.664Z,15
2018-07-28T14:14:30.530Z,10
2018-07-28T14:15:31.402Z,10
2018-07-28T14:16:30.518Z,5
2018-07-28T14:17:30.812Z,5
2018-07-28T14:18:31.376Z,5
2018-07-28T14:19:30.616Z,5
2018-07-28T14:20:30.915Z,0
2018-07-28T14:21:30.695Z,0
2018-07-28T14:22:31.039Z,0
2018-07-28T14:23:31.655Z,0
2018-07-28T14:24:30.800Z,0
2018-07-28T14:25:31.098Z,0
2018-07-28T14:26:30.875Z,0
2018-07-28T14:27:31.762Z,0
2018-07-28T14:28:31.478Z,0
2018-07-28T14:29:31.513Z,0